Decoded Metar for PAWM ( in ) (IATA:) | Meteo·Mobile Aviation Weather
aviador You're here:

PAWM Decoded Metar

in
Report Time2018-12-11 23:56:00
UTC Time2018-12-12 00:58:30
Flight Rules vfr VFR
Wind010° at 06 kt
W.Decomp.*RWY 33: 4.6 kt HW 3.9 kt RCW
W.Rank010° ranks 4
Current wind is below 010° avg. (7.3)
Visibility9999 m
Phenomena:N/A
Clouds:N/A
Expected CloudBase > 800 ft AGL from Temp-Dew spread
CeilingNone
Temp-12°C
Dew Point-14°C (85% RH)
AAT-17.5°C
QNH980 hPa
Raw Report
PAWM 112356Z AUTO 01006KT 10SM CLR M12/M14 A2895 RMK AO2 SLP810
T11171139 11100 21117 51009 FZRANO=

Extra information for PAWM:More info

Social comments